createdAt,value
2023-11-15T00:00:19.444Z,10.87
2023-11-15T00:02:47.419Z,10.80
2023-11-15T00:05:18.085Z,10.83
2023-11-15T00:07:45.878Z,10.91
2023-11-15T00:10:14.716Z,10.97
2023-11-15T00:12:43.271Z,10.95
2023-11-15T00:15:13.148Z,10.88
2023-11-15T00:17:41.487Z,10.90
2023-11-15T00:20:13.506Z,10.93
2023-11-15T00:22:41.793Z,10.94
2023-11-15T00:25:10.614Z,11.04
2023-11-15T00:27:38.799Z,11.09
2023-11-15T00:30:07.406Z,11.07
2023-11-15T00:32:36.468Z,11.07
2023-11-15T00:35:05.156Z,11.07
2023-11-15T00:37:32.807Z,11.07
2023-11-15T00:40:00.509Z,11.07
2023-11-15T00:42:28.446Z,11.11
2023-11-15T00:44:56.201Z,11.07
2023-11-15T00:47:24.141Z,11.05
2023-11-15T00:49:53.074Z,11.09
2023-11-15T00:52:20.732Z,11.04
2023-11-15T00:54:48.595Z,11.06
2023-11-15T00:57:16.366Z,11.09
2023-11-15T00:59:48.565Z,11.10
2023-11-15T01:02:17.827Z,11.01
2023-11-15T01:04:47.632Z,11.11
2023-11-15T01:07:17.653Z,11.11
2023-11-15T01:09:45.536Z,11.07
2023-11-15T01:12:13.466Z,11.02
2023-11-15T01:14:41.333Z,11.00
2023-11-15T01:17:11.288Z,10.98
2023-11-15T01:19:39.163Z,11.02
2023-11-15T01:22:07.100Z,10.98
2023-11-15T01:24:36.394Z,10.89
2023-11-15T01:27:04.489Z,10.89
2023-11-15T01:29:32.443Z,10.86
2023-11-15T01:32:00.131Z,10.81
2023-11-15T01:34:30.031Z,10.80
2023-11-15T01:36:57.721Z,10.85
2023-11-15T01:39:25.478Z,10.90
2023-11-15T01:41:56.162Z,10.90
2023-11-15T01:44:26.107Z,10.95
2023-11-15T01:46:54.347Z,10.94
2023-11-15T01:49:23.676Z,10.95
2023-11-15T01:51:53.087Z,10.92
2023-11-15T01:54:22.596Z,10.88
2023-11-15T01:56:50.808Z,10.79
2023-11-15T01:59:20.813Z,10.82
2023-11-15T02:01:49.588Z,10.85
2023-11-15T02:04:17.734Z,10.86
2023-11-15T02:06:45.403Z,10.94
2023-11-15T02:09:13.505Z,10.95
2023-11-15T02:11:41.380Z,10.93
2023-11-15T02:14:09.327Z,10.93
2023-11-15T02:16:38.580Z,11.02
2023-11-15T02:19:06.692Z,10.98
2023-11-15T02:21:34.278Z,11.01
2023-11-15T02:24:03.593Z,11.01
2023-11-15T02:26:33.602Z,11.02
2023-11-15T02:29:01.320Z,11.00
2023-11-15T02:31:29.047Z,11.06
2023-11-15T02:33:56.717Z,11.06
2023-11-15T02:36:24.342Z,11.01
2023-11-15T02:38:51.965Z,11.00
2023-11-15T02:41:21.108Z,10.96
2023-11-15T02:43:49.884Z,10.86
2023-11-15T02:46:19.712Z,10.82
2023-11-15T02:48:47.405Z,10.79
2023-11-15T02:51:15.150Z,10.81
2023-11-15T02:53:43.091Z,10.75
2023-11-15T02:56:10.984Z,10.66
2023-11-15T02:58:39.992Z,10.63
2023-11-15T03:01:08.744Z,10.65
2023-11-15T03:03:37.167Z,10.54
2023-11-15T03:06:05.689Z,10.64
2023-11-15T03:08:35.297Z,10.57
2023-11-15T03:11:03.016Z,10.54
2023-11-15T03:13:30.802Z,10.61
2023-11-15T03:15:59.958Z,10.53
2023-11-15T03:18:27.844Z,10.57
2023-11-15T03:20:55.932Z,10.62
2023-11-15T03:23:23.690Z,10.63
2023-11-15T03:25:51.658Z,10.66
2023-11-15T03:28:19.265Z,10.69
2023-11-15T03:30:47.058Z,10.66
2023-11-15T03:33:16.295Z,10.64
2023-11-15T03:35:44.247Z,10.62
2023-11-15T03:38:12.108Z,10.70
2023-11-15T03:40:39.774Z,10.75
2023-11-15T03:43:07.476Z,10.72
2023-11-15T03:45:35.084Z,10.76
2023-11-15T03:48:04.685Z,10.68
2023-11-15T03:50:33.798Z,10.67
2023-11-15T03:53:03.633Z,10.75
2023-11-15T03:55:32.028Z,10.72
2023-11-15T03:57:59.737Z,10.77
2023-11-15T04:00:27.713Z,10.76
2023-11-15T04:02:55.507Z,10.83
2023-11-15T04:05:23.652Z,10.96
2023-11-15T04:07:52.746Z,10.90
2023-11-15T04:10:20.688Z,10.91
2023-11-15T04:12:53.431Z,10.88
2023-11-15T04:15:21.134Z,10.91
2023-11-15T04:17:49.078Z,10.88
2023-11-15T04:20:17.268Z,10.92
2023-11-15T04:22:44.954Z,10.84
2023-11-15T04:25:14.097Z,10.79
2023-11-15T04:27:41.757Z,10.75
2023-11-15T04:30:11.018Z,10.71
2023-11-15T04:32:40.834Z,10.75
2023-11-15T04:35:09.622Z,10.60
2023-11-15T04:37:37.351Z,10.53
2023-11-15T04:40:07.923Z,10.57
2023-11-15T04:42:36.981Z,10.51
2023-11-15T04:45:05.509Z,10.61
2023-11-15T04:47:33.386Z,10.64
2023-11-15T04:50:01.472Z,10.61
2023-11-15T04:52:29.181Z,10.59
2023-11-15T04:54:56.992Z,10.57
2023-11-15T04:57:26.844Z,10.53
2023-11-15T04:59:56.748Z,10.56
2023-11-15T05:02:24.954Z,10.61
2023-11-15T05:04:53.346Z,10.48
2023-11-15T05:07:23.709Z,10.33
2023-11-15T05:09:51.432Z,10.37
2023-11-15T05:12:19.209Z,10.39
2023-11-15T05:14:47.573Z,10.45
2023-11-15T05:17:16.641Z,10.41
2023-11-15T05:19:44.415Z,10.30
2023-11-15T05:22:12.236Z,10.25
2023-11-15T05:24:40.412Z,10.19
2023-11-15T05:27:08.353Z,10.19
2023-11-15T05:29:36.215Z,10.17
2023-11-15T05:32:03.986Z,10.18
2023-11-15T05:34:32.952Z,10.22
2023-11-15T05:37:00.609Z,10.12
2023-11-15T05:39:28.647Z,10.21
2023-11-15T05:41:56.706Z,10.24
2023-11-15T05:44:24.345Z,10.35
2023-11-15T05:46:51.985Z,10.40
2023-11-15T05:49:19.766Z,10.49
2023-11-15T05:51:48.727Z,10.48
2023-11-15T05:54:17.450Z,10.56
2023-11-15T05:56:48.790Z,10.49
2023-11-15T05:59:16.438Z,10.56
2023-11-15T06:01:46.495Z,10.58
2023-11-15T06:04:14.144Z,10.54
2023-11-15T06:06:41.836Z,10.59
2023-11-15T06:09:14.676Z,10.60
2023-11-15T06:11:43.369Z,10.62
2023-11-15T06:14:11.618Z,10.72
2023-11-15T06:16:39.856Z,10.67
2023-11-15T06:19:08.349Z,10.66
2023-11-15T06:21:36.145Z,10.60
2023-11-15T06:24:04.205Z,10.73
2023-11-15T06:26:38.564Z,10.76
2023-11-15T06:29:06.498Z,10.64
2023-11-15T06:31:37.165Z,10.48
2023-11-15T06:34:06.260Z,10.39
2023-11-15T06:36:37.293Z,10.32
2023-11-15T06:39:09.878Z,10.32
2023-11-15T06:41:39.883Z,10.24
2023-11-15T06:44:08.634Z,10.30
2023-11-15T06:46:40.364Z,10.35
2023-11-15T06:49:08.310Z,10.31
2023-11-15T06:51:36.025Z,10.46
2023-11-15T06:54:04.082Z,10.49
2023-11-15T06:56:31.965Z,10.49
2023-11-15T06:59:02.141Z,10.52
2023-11-15T07:01:32.491Z,10.48
2023-11-15T07:04:00.446Z,10.37
2023-11-15T07:06:28.675Z,10.39
2023-11-15T07:08:57.665Z,10.45
2023-11-15T07:11:25.969Z,10.66
2023-11-15T07:13:54.979Z,10.87
2023-11-15T07:16:23.978Z,10.98
2023-11-15T07:18:52.125Z,10.96
2023-11-15T07:21:20.635Z,10.88
2023-11-15T07:23:49.618Z,11.01
2023-11-15T07:26:17.409Z,11.46
2023-11-15T07:28:45.394Z,12.18
2023-11-15T07:31:14.494Z,12.55
2023-11-15T07:33:44.842Z,12.91
2023-11-15T07:36:13.349Z,13.19
2023-11-15T07:38:41.597Z,13.38
2023-11-15T07:41:10.444Z,13.66
2023-11-15T07:43:38.099Z,14.03
2023-11-15T07:46:06.737Z,14.11
2023-11-15T07:48:35.624Z,13.88
2023-11-15T07:51:05.829Z,13.92
2023-11-15T07:53:33.702Z,14.10
2023-11-15T07:56:03.593Z,14.14
2023-11-15T07:58:31.264Z,13.68
2023-11-15T08:00:58.931Z,13.47
2023-11-15T08:03:29.662Z,13.36
2023-11-15T08:05:57.653Z,13.00
2023-11-15T08:08:26.716Z,12.59
2023-11-15T08:10:54.982Z,12.31
2023-11-15T08:13:22.718Z,12.09
2023-11-15T08:15:51.883Z,12.09
2023-11-15T08:18:19.646Z,12.19
2023-11-15T08:20:47.914Z,12.10
2023-11-15T08:23:15.680Z,12.08
2023-11-15T08:25:48.606Z,12.04
2023-11-15T08:28:16.703Z,12.19
2023-11-15T08:30:46.602Z,12.24
2023-11-15T08:33:15.277Z,12.14
2023-11-15T08:35:44.294Z,12.09
2023-11-15T08:38:14.048Z,12.16
2023-11-15T08:40:42.017Z,12.25
2023-11-15T08:43:12.245Z,12.30
2023-11-15T08:45:42.830Z,12.12
2023-11-15T08:48:13.234Z,11.99
2023-11-15T08:50:42.815Z,11.98
2023-11-15T08:53:12.139Z,12.06
2023-11-15T08:55:41.883Z,11.96
2023-11-15T08:58:12.222Z,12.18
2023-11-15T09:00:40.153Z,12.32
2023-11-15T09:03:09.823Z,12.32
2023-11-15T09:05:38.387Z,12.36
2023-11-15T09:08:06.357Z,12.37
2023-11-15T09:10:34.140Z,12.47
2023-11-15T09:13:02.978Z,12.54
2023-11-15T09:15:32.920Z,12.56
2023-11-15T09:18:01.585Z,12.82
2023-11-15T09:20:29.358Z,12.86
2023-11-15T09:22:59.135Z,12.91
2023-11-15T09:25:28.249Z,12.94
2023-11-15T09:28:00.409Z,12.83
2023-11-15T09:30:29.903Z,12.82
2023-11-15T09:33:00.974Z,12.65
2023-11-15T09:35:30.315Z,12.60
2023-11-15T09:37:59.584Z,12.59
2023-11-15T09:40:28.344Z,12.76
2023-11-15T09:43:00.949Z,12.78
2023-11-15T09:45:28.724Z,12.80
2023-11-15T09:48:02.056Z,12.73
2023-11-15T09:50:34.908Z,12.64
2023-11-15T09:53:06.461Z,12.68
2023-11-15T09:55:35.896Z,12.83
2023-11-15T09:58:03.692Z,12.90
2023-11-15T10:00:31.461Z,12.94
2023-11-15T10:02:59.391Z,12.95
2023-11-15T10:05:28.893Z,13.07
2023-11-15T10:08:12.242Z,13.12
2023-11-15T10:10:43.060Z,13.12
2023-11-15T10:13:15.923Z,13.13
2023-11-15T10:15:45.168Z,13.21
2023-11-15T10:18:15.511Z,13.37
2023-11-15T10:20:46.708Z,13.38
2023-11-15T10:23:32.159Z,13.56
2023-11-15T10:26:01.586Z,13.61
2023-11-15T10:28:33.793Z,13.46
2023-11-15T10:31:04.520Z,13.28
2023-11-15T10:33:33.534Z,13.19
2023-11-15T10:36:18.701Z,13.04
2023-11-15T10:38:51.548Z,12.82
2023-11-15T10:41:22.469Z,12.77
2023-11-15T10:43:51.470Z,12.71
2023-11-15T10:46:23.944Z,12.69
2023-11-15T10:48:53.204Z,12.66
2023-11-15T10:51:23.890Z,12.64
2023-11-15T10:53:53.947Z,12.77
2023-11-15T10:56:23.371Z,12.93
2023-11-15T10:58:54.383Z,12.98
2023-11-15T11:01:24.337Z,12.94
2023-11-15T11:03:57.098Z,12.70
2023-11-15T11:06:29.852Z,12.59
2023-11-15T11:09:11.069Z,12.68
2023-11-15T11:11:47.171Z,12.70
2023-11-15T11:14:24.433Z,12.61
2023-11-15T11:16:53.436Z,12.59
2023-11-15T11:19:24.070Z,12.56
2023-11-15T11:22:13.213Z,12.66
2023-11-15T11:24:49.895Z,12.81
2023-11-15T11:27:31.724Z,12.68
2023-11-15T11:30:24.019Z,12.75
2023-11-15T11:33:11.166Z,12.88
2023-11-15T11:35:41.754Z,12.98
2023-11-15T11:38:15.235Z,13.17
2023-11-15T11:40:47.454Z,13.25
2023-11-15T11:43:33.915Z,13.64
2023-11-15T11:46:15.357Z,13.58
2023-11-15T11:48:44.331Z,13.39
2023-11-15T11:51:15.352Z,13.35
2023-11-15T11:53:43.713Z,13.38
2023-11-15T11:56:15.043Z,13.39
2023-11-15T11:58:44.392Z,13.53
2023-11-15T12:01:12.894Z,13.59
2023-11-15T12:03:48.960Z,13.51
2023-11-15T12:06:19.278Z,13.23
2023-11-15T12:08:50.400Z,13.19
2023-11-15T12:11:23.109Z,13.05
2023-11-15T12:13:54.782Z,12.91
2023-11-15T12:16:24.022Z,12.91
2023-11-15T12:19:04.259Z,12.99
2023-11-15T12:21:33.660Z,13.00
2023-11-15T12:24:01.590Z,13.07
2023-11-15T12:26:30.639Z,12.96
2023-11-15T12:28:58.248Z,12.84
2023-11-15T12:31:26.679Z,12.69
2023-11-15T12:33:54.611Z,12.69
2023-11-15T12:36:23.331Z,12.80
2023-11-15T12:38:55.925Z,12.96
2023-11-15T12:41:24.354Z,13.07
2023-11-15T12:44:06.130Z,13.09
2023-11-15T12:46:33.918Z,13.33
2023-11-15T12:49:02.069Z,13.50
2023-11-15T12:51:33.189Z,13.64
2023-11-15T12:54:04.812Z,13.77
2023-11-15T12:56:32.625Z,13.84
2023-11-15T12:59:00.275Z,13.90
2023-11-15T13:01:29.736Z,13.80
2023-11-15T13:03:59.591Z,13.81
2023-11-15T13:06:30.816Z,13.86
2023-11-15T13:09:01.728Z,13.86
2023-11-15T13:11:31.389Z,13.84
2023-11-15T13:13:59.387Z,13.72
2023-11-15T13:16:27.337Z,13.49
2023-11-15T13:18:56.712Z,13.51
2023-11-15T13:21:24.882Z,13.38
2023-11-15T13:23:54.439Z,13.24
2023-11-15T13:26:26.000Z,13.18
2023-11-15T13:28:54.182Z,13.09
2023-11-15T13:31:27.017Z,13.06
2023-11-15T13:34:11.681Z,13.27
2023-11-15T13:36:42.997Z,13.15
2023-11-15T13:39:21.928Z,13.04
2023-11-15T13:41:50.964Z,12.81
2023-11-15T13:44:18.669Z,12.57
2023-11-15T13:46:46.356Z,12.53
2023-11-15T13:49:15.830Z,12.31
2023-11-15T13:51:43.685Z,12.23
2023-11-15T13:54:13.631Z,12.20
2023-11-15T13:56:46.089Z,12.23
2023-11-15T13:59:16.553Z,12.14
2023-11-15T14:01:43.701Z,12.13
2023-11-15T14:04:12.446Z,12.08
2023-11-15T14:06:49.454Z,12.11
2023-11-15T14:09:18.229Z,12.30
2023-11-15T14:11:51.159Z,12.27
2023-11-15T14:14:20.098Z,12.18
2023-11-15T14:16:48.646Z,12.24
2023-11-15T14:19:18.828Z,12.17
2023-11-15T14:21:53.622Z,11.90
2023-11-15T14:24:24.547Z,11.73
2023-11-15T14:27:01.097Z,11.50
2023-11-15T14:29:33.338Z,11.42
2023-11-15T14:32:02.463Z,11.31
2023-11-15T14:34:31.065Z,11.35
2023-11-15T14:37:03.995Z,11.30
2023-11-15T14:39:33.086Z,11.36
2023-11-15T14:42:09.486Z,11.37
2023-11-15T14:44:40.201Z,11.34
2023-11-15T14:47:24.416Z,11.32
2023-11-15T14:49:54.209Z,11.34
2023-11-15T14:52:27.624Z,11.35
2023-11-15T14:55:05.262Z,11.28
2023-11-15T14:57:39.300Z,11.19
2023-11-15T15:00:09.990Z,11.26
2023-11-15T15:02:37.666Z,11.10
2023-11-15T15:05:07.069Z,11.06
2023-11-15T15:07:38.919Z,10.92
2023-11-15T15:10:10.745Z,10.90
2023-11-15T15:12:42.171Z,10.84
2023-11-15T15:15:13.139Z,10.85
2023-11-15T15:17:41.800Z,10.78
2023-11-15T15:20:11.137Z,10.90
2023-11-15T15:22:41.290Z,10.82
2023-11-15T15:25:10.286Z,10.76
2023-11-15T15:27:38.162Z,10.76
2023-11-15T15:30:06.813Z,10.77
2023-11-15T15:32:36.053Z,10.76
2023-11-15T15:35:04.014Z,10.70
2023-11-15T15:37:31.877Z,10.58
2023-11-15T15:40:01.209Z,10.63
2023-11-15T15:42:29.964Z,10.54
2023-11-15T15:44:59.055Z,10.51
2023-11-15T15:47:26.837Z,10.49
2023-11-15T15:49:57.072Z,10.49
2023-11-15T15:52:26.190Z,10.55
2023-11-15T15:54:53.894Z,10.58
2023-11-15T15:57:24.178Z,10.51
2023-11-15T15:59:52.279Z,10.47
2023-11-15T16:02:19.950Z,10.40
2023-11-15T16:04:47.632Z,10.43
2023-11-15T16:07:15.447Z,10.34
2023-11-15T16:09:43.507Z,10.29
2023-11-15T16:12:11.469Z,10.15
2023-11-15T16:14:42.412Z,10.12
2023-11-15T16:17:10.225Z,10.03
2023-11-15T16:19:37.992Z,10.07
2023-11-15T16:22:05.868Z,10.10
2023-11-15T16:24:33.511Z,9.88
2023-11-15T16:27:04.386Z,9.85
2023-11-15T16:29:33.476Z,9.75
2023-11-15T16:32:02.639Z,9.63
2023-11-15T16:34:30.284Z,9.73
2023-11-15T16:36:59.740Z,9.82
2023-11-15T16:39:27.495Z,9.71
2023-11-15T16:41:55.823Z,9.65
2023-11-15T16:44:24.695Z,9.81
2023-11-15T16:46:52.602Z,9.70
2023-11-15T16:49:21.710Z,9.62
2023-11-15T16:51:50.743Z,9.71
2023-11-15T16:54:20.344Z,9.73
2023-11-15T16:56:48.334Z,9.67
2023-11-15T16:59:16.270Z,9.71
2023-11-15T17:01:44.132Z,9.68
2023-11-15T17:04:11.841Z,9.64
2023-11-15T17:06:41.779Z,9.68
2023-11-15T17:09:08.888Z,9.61
2023-11-15T17:11:36.936Z,9.61
2023-11-15T17:14:05.466Z,9.61
2023-11-15T17:16:33.968Z,9.55
2023-11-15T17:19:03.040Z,9.61
2023-11-15T17:21:30.721Z,9.59
2023-11-15T17:23:59.857Z,9.63
2023-11-15T17:26:28.697Z,9.58
2023-11-15T17:28:56.367Z,9.69
2023-11-15T17:31:26.011Z,9.58
2023-11-15T17:33:53.731Z,9.54
2023-11-15T17:36:21.709Z,9.67
2023-11-15T17:38:49.556Z,9.73
2023-11-15T17:41:20.771Z,9.80
2023-11-15T17:43:49.691Z,9.93
2023-11-15T17:46:17.968Z,10.05
2023-11-15T17:48:45.899Z,10.19
2023-11-15T17:51:13.666Z,10.29
2023-11-15T17:53:41.413Z,10.30
2023-11-15T17:56:11.654Z,10.35
2023-11-15T17:58:42.136Z,10.41
2023-11-15T18:01:10.419Z,10.41
2023-11-15T18:03:40.053Z,10.32
2023-11-15T18:06:08.797Z,10.23
2023-11-15T18:08:36.671Z,10.17
2023-11-15T18:11:05.658Z,10.19
2023-11-15T18:13:33.472Z,10.37
2023-11-15T18:16:02.651Z,10.18
2023-11-15T18:18:30.429Z,10.18
2023-11-15T18:20:58.190Z,10.22
2023-11-15T18:23:26.103Z,10.17
2023-11-15T18:25:56.580Z,10.12
2023-11-15T18:28:27.016Z,10.10
2023-11-15T18:30:55.069Z,10.11
2023-11-15T18:33:27.316Z,10.03
2023-11-15T18:35:55.250Z,10.03
2023-11-15T18:38:23.045Z,10.14
2023-11-15T18:40:51.181Z,10.09
2023-11-15T18:43:19.417Z,10.06
2023-11-15T18:45:47.119Z,10.05
2023-11-15T18:48:14.961Z,9.95
2023-11-15T18:50:44.417Z,9.98
2023-11-15T18:53:13.619Z,9.82
2023-11-15T18:55:41.447Z,9.72
2023-11-15T18:58:10.664Z,9.69
2023-11-15T19:00:38.803Z,9.80
2023-11-15T19:03:07.795Z,9.88
2023-11-15T19:05:35.599Z,9.77
2023-11-15T19:08:04.857Z,9.79
2023-11-15T19:10:33.667Z,9.68
2023-11-15T19:13:01.580Z,9.66
2023-11-15T19:15:31.607Z,9.66
2023-11-15T19:17:59.431Z,9.56
2023-11-15T19:20:30.016Z,9.62
2023-11-15T19:22:59.338Z,9.73
2023-11-15T19:25:28.619Z,9.83
2023-11-15T19:27:58.626Z,9.83
2023-11-15T19:30:26.602Z,9.75
2023-11-15T19:32:55.142Z,9.69
2023-11-15T19:35:23.000Z,9.67
2023-11-15T19:37:51.697Z,9.64
2023-11-15T19:40:20.602Z,9.72
2023-11-15T19:42:50.302Z,9.70
2023-11-15T19:45:19.287Z,9.87
2023-11-15T19:47:47.030Z,9.90
2023-11-15T19:50:15.020Z,9.95
2023-11-15T19:52:43.515Z,10.00
2023-11-15T19:55:16.011Z,10.09
2023-11-15T19:57:43.827Z,10.09
2023-11-15T20:00:18.031Z,10.04
2023-11-15T20:02:47.951Z,10.04
2023-11-15T20:05:17.715Z,10.03
2023-11-15T20:07:45.458Z,10.14
2023-11-15T20:10:14.062Z,10.18
2023-11-15T20:12:42.679Z,10.10
2023-11-15T20:15:12.240Z,10.15
2023-11-15T20:17:41.873Z,10.24
2023-11-15T20:20:10.739Z,10.28
2023-11-15T20:22:45.949Z,10.20
2023-11-15T20:25:19.976Z,10.20
2023-11-15T20:27:47.745Z,10.04
2023-11-15T20:30:16.471Z,10.04
2023-11-15T20:32:45.809Z,9.94
2023-11-15T20:35:13.569Z,9.85
2023-11-15T20:37:41.200Z,9.83
2023-11-15T20:40:15.723Z,9.75
2023-11-15T20:42:47.029Z,9.73
2023-11-15T20:45:15.246Z,9.67
2023-11-15T20:47:43.098Z,9.67
2023-11-15T20:50:12.780Z,9.72
2023-11-15T20:52:40.794Z,9.61
2023-11-15T20:55:10.718Z,9.49
2023-11-15T20:57:38.856Z,9.39
2023-11-15T21:00:12.826Z,9.35
2023-11-15T21:02:41.003Z,9.38
2023-11-15T21:05:11.600Z,9.44
2023-11-15T21:07:41.019Z,9.40
2023-11-15T21:10:10.922Z,9.47
2023-11-15T21:12:39.481Z,9.50
2023-11-15T21:15:10.771Z,9.52
2023-11-15T21:17:38.898Z,9.60
2023-11-15T21:20:12.208Z,9.71
2023-11-15T21:22:43.020Z,9.71
2023-11-15T21:25:13.548Z,9.89
2023-11-15T21:27:42.185Z,9.88
2023-11-15T21:30:13.053Z,9.87
2023-11-15T21:32:42.082Z,9.79
2023-11-15T21:35:10.784Z,9.93
2023-11-15T21:37:43.962Z,9.82
2023-11-15T21:40:16.077Z,9.92
2023-11-15T21:42:45.703Z,9.80
2023-11-15T21:45:14.711Z,9.80
2023-11-15T21:47:43.631Z,9.66
2023-11-15T21:50:15.745Z,9.67
2023-11-15T21:52:45.494Z,9.52
2023-11-15T21:55:13.354Z,9.42
2023-11-15T21:57:41.242Z,9.33
2023-11-15T22:00:13.991Z,9.31
2023-11-15T22:02:41.824Z,9.27
2023-11-15T22:05:10.590Z,9.11
2023-11-15T22:07:38.690Z,9.17
2023-11-15T22:10:10.262Z,9.04
2023-11-15T22:12:38.227Z,8.92
2023-11-15T22:15:08.282Z,8.93
2023-11-15T22:17:35.896Z,9.00
2023-11-15T22:20:03.801Z,8.84
2023-11-15T22:22:32.422Z,8.76
2023-11-15T22:25:00.531Z,8.82
2023-11-15T22:27:29.749Z,8.81
2023-11-15T22:29:57.437Z,8.71
2023-11-15T22:32:27.860Z,8.84
2023-11-15T22:34:55.833Z,8.84
2023-11-15T22:37:23.503Z,8.72
2023-11-15T22:39:51.375Z,8.76
2023-11-15T22:42:19.269Z,8.67
2023-11-15T22:44:48.332Z,8.73
2023-11-15T22:47:15.969Z,8.70
2023-11-15T22:49:43.571Z,8.74
2023-11-15T22:52:11.181Z,8.73
2023-11-15T22:54:40.209Z,8.68
2023-11-15T22:57:07.937Z,8.68
2023-11-15T22:59:37.242Z,8.64
2023-11-15T23:02:14.067Z,8.63
2023-11-15T23:04:43.244Z,8.62
2023-11-15T23:07:11.317Z,8.67
2023-11-15T23:09:39.096Z,8.62
2023-11-15T23:12:07.707Z,8.61
2023-11-15T23:14:35.737Z,8.57
2023-11-15T23:17:04.063Z,8.60
2023-11-15T23:19:33.054Z,8.57
2023-11-15T23:22:04.021Z,8.63
2023-11-15T23:24:33.618Z,8.58
2023-11-15T23:27:01.524Z,8.55
2023-11-15T23:29:30.354Z,8.41
2023-11-15T23:31:58.199Z,8.31
2023-11-15T23:34:26.439Z,8.25
2023-11-15T23:36:55.537Z,8.21
2023-11-15T23:39:26.793Z,8.26
2023-11-15T23:41:54.974Z,8.28
2023-11-15T23:44:22.707Z,8.23
2023-11-15T23:46:52.526Z,8.15
2023-11-15T23:49:20.664Z,8.05
2023-11-15T23:51:48.364Z,7.97
2023-11-15T23:54:18.225Z,7.95
2023-11-15T23:56:46.136Z,7.92
2023-11-15T23:59:13.811Z,7.94
